createdAt,value
2022-10-17T00:00:55.841Z,83.16
2022-10-17T00:03:57.869Z,83.82
2022-10-17T00:07:00.570Z,83.30
2022-10-17T00:10:03.332Z,82.68
2022-10-17T00:13:06.477Z,83.65
2022-10-17T00:16:09.162Z,84.23
2022-10-17T00:19:11.329Z,84.54
2022-10-17T00:22:14.111Z,84.33
2022-10-17T00:25:16.519Z,84.74
2022-10-17T00:28:18.750Z,84.53
2022-10-17T00:31:23.419Z,84.47
2022-10-17T00:34:26.194Z,84.39
2022-10-17T00:37:28.517Z,84.26
2022-10-17T00:40:30.627Z,83.64
2022-10-17T00:43:51.197Z,83.10
2022-10-17T00:47:02.591Z,83.11
2022-10-17T00:50:07.072Z,83.07
2022-10-17T00:53:09.713Z,83.37
2022-10-17T00:56:15.802Z,82.93
2022-10-17T00:59:22.086Z,83.26
2022-10-17T01:02:24.295Z,83.26
2022-10-17T01:05:27.449Z,83.84
2022-10-17T01:08:30.654Z,84.10
2022-10-17T01:11:40.782Z,84.08
2022-10-17T01:15:02.379Z,84.07
2022-10-17T01:18:13.125Z,84.95
2022-10-17T01:21:48.361Z,83.82
2022-10-17T01:25:01.929Z,84.17
2022-10-17T01:32:30.792Z,83.69
2022-10-17T01:35:38.370Z,83.57
2022-10-17T01:38:49.065Z,83.41
2022-10-17T01:42:19.458Z,83.22
2022-10-17T01:45:25.798Z,83.62
2022-10-17T01:48:36.319Z,82.82
2022-10-17T01:51:43.540Z,82.76
2022-10-17T01:54:51.322Z,82.89
2022-10-17T01:57:58.039Z,83.70
2022-10-17T02:01:07.015Z,83.05
2022-10-17T02:04:11.466Z,83.81
2022-10-17T02:07:13.960Z,84.32
2022-10-17T02:10:26.157Z,83.47
2022-10-17T02:13:42.556Z,83.91
2022-10-17T02:17:00.301Z,84.47
2022-10-17T02:20:11.536Z,84.13
2022-10-17T02:23:30.643Z,83.65
2022-10-17T02:26:48.507Z,82.84
2022-10-17T02:30:01.244Z,83.55
2022-10-17T02:33:06.801Z,83.21
2022-10-17T02:36:17.979Z,82.13
2022-10-17T02:39:25.385Z,82.97
2022-10-17T02:42:30.330Z,81.88
2022-10-17T02:45:36.587Z,82.56
2022-10-17T02:48:48.571Z,82.72
2022-10-17T02:52:04.256Z,82.89
2022-10-17T02:55:18.093Z,82.43
2022-10-17T02:58:28.365Z,82.77
2022-10-17T03:01:31.315Z,81.89
2022-10-17T03:04:34.272Z,81.94
2022-10-17T03:07:39.438Z,81.38
2022-10-17T03:10:42.791Z,80.41
2022-10-17T03:13:47.608Z,79.03
2022-10-17T03:16:51.315Z,79.37
2022-10-17T03:19:54.640Z,79.31
2022-10-17T03:22:56.782Z,79.31
2022-10-17T03:25:58.875Z,79.51
2022-10-17T03:29:02.121Z,79.12
2022-10-17T03:32:05.479Z,79.51
2022-10-17T03:35:14.090Z,79.30
2022-10-17T03:38:19.331Z,80.12
2022-10-17T03:41:21.669Z,79.48
2022-10-17T03:44:24.029Z,80.03
2022-10-17T03:47:26.214Z,79.95
2022-10-17T03:50:28.531Z,79.46
2022-10-17T03:53:32.606Z,80.42
2022-10-17T03:56:34.720Z,80.11
2022-10-17T03:59:43.483Z,79.00
2022-10-17T04:02:50.209Z,78.30
2022-10-17T04:05:57.770Z,78.39
2022-10-17T04:09:00.146Z,78.80
2022-10-17T04:12:24.849Z,85.11
2022-10-17T04:15:27.364Z,83.80
2022-10-17T04:18:29.913Z,88.61
2022-10-17T04:21:32.219Z,89.21
2022-10-17T04:24:39.920Z,91.18
2022-10-17T04:27:49.525Z,92.08
2022-10-17T04:31:11.798Z,97.11
2022-10-17T04:34:34.552Z,97.41
2022-10-17T04:37:36.616Z,100.00
2022-10-17T04:40:45.070Z,97.76
2022-10-17T04:43:51.019Z,97.28
2022-10-17T04:46:56.039Z,98.19
2022-10-17T04:49:59.173Z,97.41
2022-10-17T04:53:01.936Z,97.58
2022-10-17T04:56:12.776Z,97.41
2022-10-17T04:59:15.210Z,97.32
2022-10-17T05:02:19.380Z,97.33
2022-10-17T05:05:22.302Z,97.20
2022-10-17T05:08:29.896Z,97.11
2022-10-17T05:11:32.656Z,96.29
2022-10-17T05:14:34.745Z,95.94
2022-10-17T05:17:37.017Z,93.33
2022-10-17T05:20:39.248Z,94.62
2022-10-17T05:23:42.075Z,94.48
2022-10-17T05:26:44.160Z,94.40
2022-10-17T05:29:47.510Z,94.60
2022-10-17T05:33:01.286Z,95.35
2022-10-17T05:36:03.728Z,95.85
2022-10-17T05:39:06.258Z,95.38
2022-10-17T05:42:09.857Z,94.56
2022-10-17T05:45:12.006Z,94.89
2022-10-17T05:48:14.423Z,94.28
2022-10-17T05:51:16.593Z,94.55
2022-10-17T05:54:18.953Z,94.88
2022-10-17T05:57:21.111Z,94.72
2022-10-17T06:00:23.387Z,94.80
2022-10-17T06:03:32.682Z,94.35
2022-10-17T06:06:40.363Z,94.16
2022-10-17T06:09:43.012Z,94.19
2022-10-17T06:12:46.286Z,98.52
2022-10-17T06:15:49.589Z,100.00
2022-10-17T06:18:51.773Z,100.00
2022-10-17T06:21:54.702Z,97.55
2022-10-17T06:24:58.503Z,96.33
2022-10-17T06:28:01.167Z,92.14
2022-10-17T06:31:11.661Z,93.25
2022-10-17T06:34:13.785Z,90.31
2022-10-17T06:37:16.418Z,88.64
2022-10-17T06:40:21.181Z,87.03
2022-10-17T06:43:27.866Z,86.91
2022-10-17T06:46:53.021Z,86.75
2022-10-17T06:49:56.530Z,87.76
2022-10-17T06:53:18.727Z,81.29
2022-10-17T06:56:52.861Z,71.71
2022-10-17T07:00:21.394Z,70.24
2022-10-17T07:03:27.073Z,66.99
2022-10-17T07:06:29.353Z,67.57
2022-10-17T07:09:35.874Z,68.84
2022-10-17T07:12:37.936Z,69.80
2022-10-17T07:15:40.102Z,70.60
2022-10-17T07:18:43.016Z,69.83
2022-10-17T07:21:45.222Z,69.81
2022-10-17T07:27:56.070Z,70.65
2022-10-17T07:31:07.127Z,71.33
2022-10-17T07:34:09.279Z,71.93
2022-10-17T07:37:12.047Z,72.81
2022-10-17T07:40:17.539Z,72.58
2022-10-17T07:43:19.754Z,72.96
2022-10-17T07:46:22.354Z,71.72
2022-10-17T07:49:25.142Z,72.05
2022-10-17T07:52:28.134Z,71.73
2022-10-17T07:55:31.259Z,71.44
2022-10-17T07:58:33.505Z,70.18
2022-10-17T08:01:35.687Z,70.32
2022-10-17T08:04:37.892Z,69.63
2022-10-17T08:07:41.481Z,70.16
2022-10-17T08:10:43.892Z,70.16
2022-10-17T08:13:46.010Z,70.16
2022-10-17T08:16:48.079Z,69.15
2022-10-17T08:19:50.165Z,69.58
2022-10-17T08:22:53.700Z,69.48
2022-10-17T08:25:59.966Z,70.41
2022-10-17T08:29:02.133Z,70.14
2022-10-17T08:32:07.649Z,69.78
2022-10-17T08:35:11.717Z,69.62
2022-10-17T08:38:14.654Z,69.10
2022-10-17T08:41:47.628Z,69.19
2022-10-17T08:45:15.919Z,68.36
2022-10-17T08:48:23.971Z,72.06
2022-10-17T08:51:32.644Z,71.13
2022-10-17T08:54:42.213Z,69.40
2022-10-17T08:57:44.718Z,68.09
2022-10-17T09:01:13.271Z,65.96
2022-10-17T09:04:44.536Z,64.41
2022-10-17T09:08:20.296Z,62.53
2022-10-17T09:11:45.474Z,62.26
2022-10-17T09:14:59.091Z,62.68
2022-10-17T09:18:13.452Z,63.26
2022-10-17T09:21:30.564Z,62.46
2022-10-17T09:24:42.483Z,62.78
2022-10-17T09:27:51.997Z,61.89
2022-10-17T09:31:13.278Z,65.25
2022-10-17T09:34:16.545Z,67.82
2022-10-17T09:37:19.929Z,69.68
2022-10-17T09:40:27.035Z,72.21
2022-10-17T09:43:30.443Z,72.92
2022-10-17T09:46:41.897Z,71.31
2022-10-17T09:49:47.084Z,70.86
2022-10-17T09:52:51.019Z,69.81
2022-10-17T09:56:03.193Z,68.27
2022-10-17T09:59:05.303Z,68.39
2022-10-17T10:02:13.262Z,70.75
2022-10-17T10:05:30.176Z,73.62
2022-10-17T10:08:38.031Z,74.05
2022-10-17T10:11:52.476Z,74.52
2022-10-17T10:14:55.547Z,74.31
2022-10-17T10:17:57.769Z,74.40
2022-10-17T10:21:10.487Z,74.37
2022-10-17T10:24:15.268Z,74.06
2022-10-17T10:27:18.867Z,71.77
2022-10-17T10:30:25.920Z,71.69
2022-10-17T10:33:30.717Z,70.66
2022-10-17T10:36:46.379Z,69.06
2022-10-17T10:39:54.806Z,69.13
2022-10-17T10:43:04.878Z,69.05
2022-10-17T10:46:37.008Z,69.53
2022-10-17T10:49:39.775Z,68.25
2022-10-17T10:53:02.728Z,66.11
2022-10-17T10:56:13.623Z,64.37
2022-10-17T10:59:42.868Z,61.68
2022-10-17T11:03:12.719Z,60.96
2022-10-17T11:06:25.262Z,60.03
2022-10-17T11:13:29.234Z,59.37
2022-10-17T11:17:00.001Z,58.92
2022-10-17T11:20:30.502Z,58.54
2022-10-17T11:23:56.525Z,59.92
2022-10-17T11:27:05.129Z,61.50
2022-10-17T11:30:12.110Z,63.30
2022-10-17T11:33:26.831Z,61.29
2022-10-17T11:36:32.992Z,60.06
2022-10-17T11:39:42.378Z,59.83
2022-10-17T11:43:15.742Z,59.71
2022-10-17T11:46:24.998Z,58.69
2022-10-17T11:49:51.561Z,57.92
2022-10-17T11:52:59.250Z,57.32
2022-10-17T11:56:02.952Z,57.73
2022-10-17T11:59:41.990Z,57.75
2022-10-17T12:02:52.170Z,56.86
2022-10-17T12:06:18.233Z,57.17
2022-10-17T12:09:42.606Z,57.05
2022-10-17T12:12:44.744Z,57.30
2022-10-17T12:15:51.338Z,57.78
2022-10-17T12:19:03.046Z,57.44
2022-10-17T12:22:28.864Z,57.27
2022-10-17T12:25:34.723Z,57.41
2022-10-17T12:28:48.175Z,57.95
2022-10-17T12:31:50.878Z,57.42
2022-10-17T12:34:55.654Z,57.86
2022-10-17T12:38:01.917Z,57.50
2022-10-17T12:41:05.216Z,58.19
2022-10-17T12:44:14.969Z,57.95
2022-10-17T12:47:38.326Z,57.87
2022-10-17T12:51:30.720Z,57.86
2022-10-17T12:54:24.483Z,58.23
2022-10-17T12:57:48.482Z,58.25
2022-10-17T13:04:22.155Z,58.75
2022-10-17T13:07:26.377Z,58.56
2022-10-17T13:10:31.729Z,59.02
2022-10-17T13:13:39.338Z,58.84
2022-10-17T13:16:52.205Z,58.61
2022-10-17T13:19:55.455Z,59.22
2022-10-17T13:22:58.650Z,59.91
2022-10-17T13:26:15.874Z,59.60
2022-10-17T13:29:46.522Z,59.59
2022-10-17T13:32:52.167Z,59.99
2022-10-17T13:36:00.508Z,59.82
2022-10-17T13:39:12.526Z,60.39
2022-10-17T13:42:30.366Z,60.52
2022-10-17T13:45:37.101Z,61.20
2022-10-17T13:48:39.594Z,61.08
2022-10-17T13:51:48.217Z,60.44
2022-10-17T13:54:51.697Z,60.54
2022-10-17T13:57:58.368Z,61.02
2022-10-17T14:01:01.171Z,60.51
2022-10-17T14:04:19.496Z,61.08
2022-10-17T14:07:46.132Z,61.08
2022-10-17T14:10:49.352Z,60.97
2022-10-17T14:13:59.110Z,60.99
2022-10-17T14:17:01.415Z,60.67
2022-10-17T14:23:38.467Z,61.77
2022-10-17T14:26:55.789Z,62.97
2022-10-17T14:30:04.220Z,63.43
2022-10-17T14:33:11.163Z,63.01
2022-10-17T14:36:14.557Z,63.05
2022-10-17T14:39:23.502Z,62.41
2022-10-17T14:42:26.268Z,62.98
2022-10-17T14:45:38.826Z,62.86
2022-10-17T14:48:43.296Z,62.39
2022-10-17T14:52:16.789Z,62.66
2022-10-17T14:55:25.606Z,61.88
2022-10-17T14:58:33.615Z,62.04
2022-10-17T15:01:36.132Z,61.74
2022-10-17T15:04:42.328Z,62.08
2022-10-17T15:07:46.962Z,65.49
2022-10-17T15:10:52.082Z,65.88
2022-10-17T15:13:54.675Z,67.16
2022-10-17T15:16:56.861Z,67.56
2022-10-17T15:19:59.295Z,68.10
2022-10-17T15:23:02.407Z,68.86
2022-10-17T15:26:16.172Z,68.14
2022-10-17T15:29:18.766Z,68.45
2022-10-17T15:32:21.152Z,69.81
2022-10-17T15:35:26.542Z,69.77
2022-10-17T15:38:29.397Z,69.07
2022-10-17T15:41:32.816Z,70.09
2022-10-17T15:44:36.963Z,70.49
2022-10-17T15:47:39.312Z,72.08
2022-10-17T15:50:42.154Z,72.42
2022-10-17T15:53:45.798Z,73.73
2022-10-17T15:57:34.144Z,73.54
2022-10-17T16:00:38.583Z,72.35
2022-10-17T16:03:40.662Z,71.13
2022-10-17T16:06:43.309Z,69.33
2022-10-17T16:09:46.274Z,69.12
2022-10-17T16:12:51.411Z,69.30
2022-10-17T16:15:54.028Z,69.55
2022-10-17T16:18:57.724Z,68.64
2022-10-17T16:22:04.331Z,68.89
2022-10-17T16:25:19.644Z,68.90
2022-10-17T16:28:23.081Z,68.69
2022-10-17T16:31:29.483Z,69.85
2022-10-17T16:34:32.954Z,69.43
2022-10-17T16:37:38.193Z,70.00
2022-10-17T16:40:41.453Z,69.81
2022-10-17T16:43:45.517Z,71.25
2022-10-17T16:46:48.485Z,70.39
2022-10-17T16:49:51.338Z,70.77
2022-10-17T16:52:56.248Z,71.11
2022-10-17T16:56:10.209Z,71.84
2022-10-17T16:59:13.004Z,71.00
2022-10-17T17:02:24.707Z,71.90
2022-10-17T17:05:27.816Z,70.98
2022-10-17T17:08:31.745Z,72.37
2022-10-17T17:11:33.835Z,72.55
2022-10-17T17:14:36.089Z,72.61
2022-10-17T17:17:50.313Z,74.08
2022-10-17T17:21:00.193Z,74.26
2022-10-17T17:24:04.564Z,74.30
2022-10-17T17:27:08.793Z,75.54
2022-10-17T17:30:13.935Z,76.11
2022-10-17T17:33:17.890Z,76.25
2022-10-17T17:36:22.557Z,74.95
2022-10-17T17:39:24.551Z,75.35
2022-10-17T17:42:26.874Z,74.69
2022-10-17T17:45:29.449Z,74.55
2022-10-17T17:48:32.736Z,74.77
2022-10-17T17:51:34.893Z,74.62
2022-10-17T17:54:40.072Z,75.61
2022-10-17T17:57:45.817Z,79.05
2022-10-17T18:00:47.938Z,81.25
2022-10-17T18:03:52.647Z,85.41
2022-10-17T18:07:00.815Z,90.15
2022-10-17T18:10:04.438Z,95.53
2022-10-17T18:13:08.024Z,97.02
2022-10-17T18:16:17.119Z,96.74
2022-10-17T18:19:19.417Z,97.45
2022-10-17T18:22:25.385Z,99.75
2022-10-17T18:25:28.523Z,100.00
2022-10-17T18:28:30.857Z,100.00
2022-10-17T18:31:36.181Z,100.00
2022-10-17T18:34:38.414Z,92.44
2022-10-17T18:37:42.776Z,86.91
2022-10-17T18:40:47.318Z,86.39
2022-10-17T18:43:53.525Z,86.10
2022-10-17T18:46:59.856Z,84.80
2022-10-17T18:50:06.706Z,84.78
2022-10-17T18:53:09.716Z,84.26
2022-10-17T18:56:16.455Z,83.26
2022-10-17T18:59:19.387Z,83.91
2022-10-17T19:02:21.503Z,82.96
2022-10-17T19:05:24.757Z,82.69
2022-10-17T19:08:26.832Z,83.88
2022-10-17T19:11:31.968Z,84.14
2022-10-17T19:14:34.297Z,84.64
2022-10-17T19:17:38.328Z,84.22
2022-10-17T19:20:42.966Z,84.50
2022-10-17T19:23:52.997Z,83.19
2022-10-17T19:26:58.748Z,83.41
2022-10-17T19:30:01.839Z,85.08
2022-10-17T19:33:05.773Z,85.82
2022-10-17T19:36:11.411Z,86.51
2022-10-17T19:39:16.442Z,86.91
2022-10-17T19:42:19.101Z,85.20
2022-10-17T19:45:25.577Z,87.15
2022-10-17T19:48:31.529Z,98.33
2022-10-17T19:51:34.281Z,99.71
2022-10-17T19:54:36.307Z,99.02
2022-10-17T19:57:38.543Z,97.85
2022-10-17T20:00:47.482Z,96.70
2022-10-17T20:03:54.749Z,95.30
2022-10-17T20:07:00.112Z,94.32
2022-10-17T20:10:04.705Z,93.26
2022-10-17T20:13:08.611Z,91.88
2022-10-17T20:16:14.028Z,90.02
2022-10-17T20:19:16.414Z,89.50
2022-10-17T20:22:18.808Z,87.83
2022-10-17T20:25:22.643Z,87.88
2022-10-17T20:28:26.888Z,86.74
2022-10-17T20:31:29.390Z,86.53
2022-10-17T20:34:35.705Z,86.54
2022-10-17T20:37:42.375Z,86.36
2022-10-17T20:40:46.314Z,84.87
2022-10-17T20:43:51.971Z,84.79
2022-10-17T20:47:01.697Z,83.47
2022-10-17T20:50:07.642Z,83.23
2022-10-17T20:56:36.576Z,82.31
2022-10-17T20:59:38.662Z,82.63
2022-10-17T21:02:40.956Z,82.44
2022-10-17T21:05:43.376Z,82.21
2022-10-17T21:08:46.697Z,82.61
2022-10-17T21:11:51.906Z,82.39
2022-10-17T21:14:54.684Z,82.30
2022-10-17T21:17:56.764Z,81.73
2022-10-17T21:21:15.130Z,83.33
2022-10-17T21:24:19.613Z,83.58
2022-10-17T21:27:21.664Z,84.37
2022-10-17T21:30:24.393Z,83.66
2022-10-17T21:33:29.417Z,84.28
2022-10-17T21:36:32.301Z,84.76
2022-10-17T21:39:35.839Z,84.69
2022-10-17T21:42:39.185Z,84.67
2022-10-17T21:45:45.553Z,84.24
2022-10-17T21:48:49.164Z,84.33
2022-10-17T21:51:52.623Z,84.21
2022-10-17T21:54:55.957Z,83.51
2022-10-17T21:57:58.162Z,83.23
2022-10-17T22:01:09.348Z,83.33
2022-10-17T22:04:18.436Z,82.89
2022-10-17T22:07:20.613Z,82.96
2022-10-17T22:10:24.171Z,82.63
2022-10-17T22:13:26.663Z,82.82
2022-10-17T22:16:29.215Z,82.56
2022-10-17T22:19:32.405Z,82.68
2022-10-17T22:22:34.464Z,82.31
2022-10-17T22:25:40.454Z,82.30
2022-10-17T22:28:42.537Z,82.33
2022-10-17T22:31:44.953Z,83.06
2022-10-17T22:34:48.341Z,83.33
2022-10-17T22:37:52.936Z,82.47
2022-10-17T22:40:55.301Z,82.44
2022-10-17T22:43:57.582Z,82.44
2022-10-17T22:46:59.709Z,82.34
2022-10-17T22:50:01.818Z,82.27
2022-10-17T22:53:05.206Z,81.87
2022-10-17T22:56:16.647Z,81.71
2022-10-17T22:59:19.324Z,81.83
2022-10-17T23:02:24.150Z,81.75
2022-10-17T23:05:27.390Z,81.70
2022-10-17T23:08:29.628Z,81.39
2022-10-17T23:11:31.870Z,81.36
2022-10-17T23:14:37.658Z,81.61
2022-10-17T23:17:40.864Z,81.70
2022-10-17T23:20:43.428Z,81.82
2022-10-17T23:23:46.916Z,81.76
2022-10-17T23:26:49.245Z,82.17
2022-10-17T23:29:53.535Z,82.12
2022-10-17T23:32:56.762Z,81.61
2022-10-17T23:36:03.523Z,81.79
2022-10-17T23:39:07.307Z,82.24
2022-10-17T23:42:09.501Z,82.37
2022-10-17T23:45:12.752Z,82.11
2022-10-17T23:48:14.908Z,81.50
2022-10-17T23:51:17.179Z,81.44
2022-10-17T23:54:19.623Z,80.88
2022-10-17T23:57:21.747Z,80.83
